createdAt,value
2023-01-04T00:01:21.348Z,5.70
2023-01-04T00:03:48.570Z,5.60
2023-01-04T00:06:17.238Z,5.50
2023-01-04T00:08:44.274Z,5.40
2023-01-04T00:11:14.869Z,5.40
2023-01-04T00:13:42.200Z,5.40
2023-01-04T00:16:13.619Z,5.40
2023-01-04T00:18:41.649Z,5.40
2023-01-04T00:21:21.964Z,5.40
2023-01-04T00:23:51.602Z,5.40
2023-01-04T00:26:25.381Z,5.40
2023-01-04T00:28:57.594Z,5.30
2023-01-04T00:31:26.250Z,5.30
2023-01-04T00:34:01.968Z,5.30
2023-01-04T00:36:29.885Z,5.40
2023-01-04T00:39:10.166Z,5.40
2023-01-04T00:42:04.236Z,5.40
2023-01-04T00:44:35.157Z,5.40
2023-01-04T00:47:04.560Z,5.40
2023-01-04T00:49:32.799Z,5.40
2023-01-04T00:52:00.423Z,5.30
2023-01-04T00:54:27.971Z,5.30
2023-01-04T00:56:55.135Z,5.20
2023-01-04T00:59:23.310Z,5.20
2023-01-04T01:01:51.459Z,5.30
2023-01-04T01:04:21.227Z,5.30
2023-01-04T01:06:48.714Z,5.30
2023-01-04T01:09:15.960Z,5.40
2023-01-04T01:11:43.142Z,5.40
2023-01-04T01:14:16.830Z,5.40
2023-01-04T01:16:59.414Z,5.40
2023-01-04T01:19:28.781Z,5.40
2023-01-04T01:21:58.344Z,5.50
2023-01-04T01:24:26.637Z,5.50
2023-01-04T01:26:53.663Z,5.50
2023-01-04T01:29:20.846Z,5.60
2023-01-04T01:31:47.940Z,5.60
2023-01-04T01:34:15.080Z,5.60
2023-01-04T01:36:43.429Z,5.60
2023-01-04T01:39:10.453Z,5.60
2023-01-04T01:41:37.546Z,5.60
2023-01-04T01:44:25.833Z,5.60
2023-01-04T01:46:54.860Z,5.60
2023-01-04T01:49:53.508Z,5.60
2023-01-04T01:52:37.114Z,5.50
2023-01-04T01:55:08.733Z,5.50
2023-01-04T01:57:37.989Z,5.50
2023-01-04T02:00:10.651Z,5.50
2023-01-04T02:02:39.544Z,5.50
2023-01-04T02:05:07.270Z,5.40
2023-01-04T02:07:36.335Z,5.40
2023-01-04T02:10:04.218Z,5.40
2023-01-04T02:12:31.291Z,5.30
2023-01-04T02:14:58.487Z,5.30
2023-01-04T02:17:45.358Z,5.30
2023-01-04T02:20:31.605Z,5.20
2023-01-04T02:23:28.051Z,5.20
2023-01-04T02:26:13.921Z,5.10
2023-01-04T02:28:59.049Z,5.00
2023-01-04T02:31:29.380Z,4.90
2023-01-04T02:34:13.862Z,4.70
2023-01-04T02:36:56.186Z,4.70
2023-01-04T02:39:41.791Z,4.60
2023-01-04T02:42:56.079Z,4.50
2023-01-04T02:45:29.300Z,4.40
2023-01-04T02:48:14.994Z,4.30
2023-01-04T02:50:51.718Z,4.20
2023-01-04T02:53:26.113Z,4.20
2023-01-04T02:55:58.701Z,4.10
2023-01-04T02:58:47.156Z,4.10
2023-01-04T03:01:56.849Z,4.00
2023-01-04T03:05:10.145Z,4.00
2023-01-04T03:07:45.476Z,3.90
2023-01-04T03:10:56.387Z,3.80
2023-01-04T03:13:45.991Z,3.70
2023-01-04T03:16:23.999Z,3.70
2023-01-04T03:18:55.583Z,3.70
2023-01-04T03:21:25.788Z,3.60
2023-01-04T03:24:16.390Z,3.60
2023-01-04T03:27:17.815Z,3.60
2023-01-04T03:30:12.460Z,3.60
2023-01-04T03:33:20.441Z,3.50
2023-01-04T03:35:52.524Z,3.40
2023-01-04T03:39:23.042Z,3.40
2023-01-04T03:42:47.472Z,3.50
2023-01-04T03:45:41.763Z,3.60
2023-01-04T03:48:27.946Z,3.70
2023-01-04T03:51:16.277Z,3.70
2023-01-04T03:53:53.322Z,3.90
2023-01-04T03:56:23.029Z,3.90
2023-01-04T03:58:51.258Z,4.00
2023-01-04T04:01:21.090Z,4.00
2023-01-04T04:04:06.692Z,4.00
2023-01-04T04:06:52.155Z,4.10
2023-01-04T04:09:19.244Z,4.20
2023-01-04T04:11:46.413Z,4.20
2023-01-04T04:14:13.469Z,4.20
2023-01-04T04:16:40.566Z,4.30
2023-01-04T04:19:09.041Z,4.30
2023-01-04T04:21:37.389Z,4.40
2023-01-04T04:24:04.940Z,4.40
2023-01-04T04:26:32.320Z,4.40
2023-01-04T04:28:59.415Z,4.40
2023-01-04T04:31:26.476Z,4.40
2023-01-04T04:33:53.536Z,4.40
2023-01-04T04:36:20.564Z,4.40
2023-01-04T04:38:47.651Z,4.50
2023-01-04T04:41:33.309Z,4.40
2023-01-04T04:44:00.881Z,4.40
2023-01-04T04:46:28.001Z,4.30
2023-01-04T04:48:55.098Z,4.30
2023-01-04T04:51:22.188Z,4.30
2023-01-04T04:53:49.587Z,4.30
2023-01-04T04:56:17.027Z,4.30
2023-01-04T04:58:44.010Z,4.20
2023-01-04T05:01:11.246Z,4.20
2023-01-04T05:03:38.517Z,4.10
2023-01-04T05:06:05.981Z,4.10
2023-01-04T05:08:33.379Z,4.00
2023-01-04T05:11:00.587Z,4.00
2023-01-04T05:13:27.615Z,3.90
2023-01-04T05:15:55.388Z,3.90
2023-01-04T05:18:23.407Z,3.80
2023-01-04T05:20:50.556Z,3.80
2023-01-04T05:23:19.954Z,3.80
2023-01-04T05:25:55.874Z,3.80
2023-01-04T05:28:23.274Z,3.70
2023-01-04T05:30:55.829Z,3.70
2023-01-04T05:33:30.403Z,3.70
2023-01-04T05:36:00.327Z,3.70
2023-01-04T05:38:27.830Z,3.60
2023-01-04T05:40:54.972Z,3.50
2023-01-04T05:43:23.235Z,3.40
2023-01-04T05:45:52.896Z,3.40
2023-01-04T05:48:20.804Z,3.30
2023-01-04T05:50:48.391Z,3.20
2023-01-04T05:53:18.418Z,3.10
2023-01-04T05:55:47.900Z,3.10
2023-01-04T05:58:15.385Z,3.10
2023-01-04T06:00:42.480Z,3.10
2023-01-04T06:03:09.588Z,3.10
2023-01-04T06:05:37.096Z,3.10
2023-01-04T06:08:04.833Z,3.00
2023-01-04T06:10:31.923Z,3.10
2023-01-04T06:12:59.108Z,3.00
2023-01-04T06:15:26.218Z,3.00
2023-01-04T06:17:53.279Z,3.00
2023-01-04T06:20:20.298Z,3.00
2023-01-04T06:22:47.335Z,3.10
2023-01-04T06:25:14.590Z,3.10
2023-01-04T06:27:41.637Z,3.00
2023-01-04T06:30:09.226Z,3.00
2023-01-04T06:32:36.404Z,2.90
2023-01-04T06:35:03.504Z,3.00
2023-01-04T06:37:30.503Z,3.00
2023-01-04T06:39:57.528Z,2.90
2023-01-04T06:42:43.054Z,2.90
2023-01-04T06:45:10.610Z,2.90
2023-01-04T06:47:38.278Z,2.80
2023-01-04T06:50:05.564Z,2.80
2023-01-04T06:52:32.589Z,2.90
2023-01-04T06:54:59.670Z,2.90
2023-01-04T06:57:27.929Z,2.90
2023-01-04T06:59:54.959Z,3.00
2023-01-04T07:02:22.093Z,3.10
2023-01-04T07:04:49.273Z,3.00
2023-01-04T07:07:16.334Z,3.00
2023-01-04T07:09:43.395Z,3.00
2023-01-04T07:12:10.452Z,3.00
2023-01-04T07:14:37.489Z,3.00
2023-01-04T07:17:04.630Z,3.00
2023-01-04T07:19:31.743Z,2.90
2023-01-04T07:21:59.077Z,3.00
2023-01-04T07:24:30.360Z,3.00
2023-01-04T07:26:59.577Z,3.00
2023-01-04T07:29:26.775Z,3.10
2023-01-04T07:31:54.295Z,3.10
2023-01-04T07:34:24.758Z,3.10
2023-01-04T07:36:52.098Z,3.00
2023-01-04T07:39:20.201Z,3.00
2023-01-04T07:41:48.822Z,3.00
2023-01-04T07:44:18.480Z,3.00
2023-01-04T07:46:45.792Z,3.00
2023-01-04T07:49:17.918Z,2.90
2023-01-04T07:51:47.330Z,2.90
2023-01-04T07:54:15.722Z,3.00
2023-01-04T07:56:43.333Z,3.10
2023-01-04T07:59:12.491Z,3.10
2023-01-04T08:01:40.595Z,3.20
2023-01-04T08:04:10.087Z,3.20
2023-01-04T08:06:38.769Z,3.20
2023-01-04T08:09:07.038Z,3.10
2023-01-04T08:11:34.790Z,3.10
2023-01-04T08:14:02.159Z,3.10
2023-01-04T08:16:32.556Z,3.20
2023-01-04T08:19:08.832Z,3.20
2023-01-04T08:21:37.094Z,3.20
2023-01-04T08:24:05.822Z,3.30
2023-01-04T08:26:33.525Z,3.30
2023-01-04T08:29:00.669Z,3.30
2023-01-04T08:31:31.637Z,3.40
2023-01-04T08:34:02.003Z,3.40
2023-01-04T08:36:31.691Z,3.40
2023-01-04T08:39:05.068Z,3.40
2023-01-04T08:42:04.785Z,3.40
2023-01-04T08:44:38.287Z,3.40
2023-01-04T08:47:05.941Z,3.50
2023-01-04T08:49:33.491Z,3.50
2023-01-04T08:52:00.528Z,3.60
2023-01-04T08:54:27.602Z,3.60
2023-01-04T08:56:54.778Z,3.70
2023-01-04T08:59:21.808Z,3.70
2023-01-04T09:01:48.984Z,3.80
2023-01-04T09:04:16.157Z,3.90
2023-01-04T09:06:43.321Z,4.00
2023-01-04T09:09:10.428Z,4.00
2023-01-04T09:11:39.015Z,4.10
2023-01-04T09:14:09.256Z,4.20
2023-01-04T09:16:38.584Z,4.20
2023-01-04T09:19:06.612Z,4.30
2023-01-04T09:21:33.746Z,4.30
2023-01-04T09:24:00.830Z,4.30
2023-01-04T09:26:27.877Z,4.40
2023-01-04T09:28:56.859Z,4.50
2023-01-04T09:31:26.758Z,4.50
2023-01-04T09:36:43.125Z,4.60
2023-01-04T09:39:16.782Z,4.70
2023-01-04T09:41:58.400Z,4.70
2023-01-04T09:47:55.292Z,4.80
2023-01-04T09:50:41.192Z,4.80
2023-01-04T09:53:37.856Z,4.90
2023-01-04T09:56:51.319Z,4.90
2023-01-04T09:59:23.929Z,5.00
2023-01-04T10:01:58.098Z,5.00
2023-01-04T10:04:33.934Z,5.10
2023-01-04T10:07:05.231Z,5.20
2023-01-04T10:09:33.930Z,5.20
2023-01-04T10:12:28.389Z,5.30
2023-01-04T10:15:01.463Z,5.40
2023-01-04T10:18:13.652Z,5.40
2023-01-04T10:23:19.858Z,5.50
2023-01-04T10:25:52.824Z,5.50
2023-01-04T10:28:22.313Z,5.50
2023-01-04T10:31:40.955Z,5.60
2023-01-04T10:34:26.199Z,5.70
2023-01-04T10:37:01.020Z,5.80
2023-01-04T10:39:32.980Z,5.80
2023-01-04T10:42:14.839Z,5.80
2023-01-04T10:44:56.052Z,5.90
2023-01-04T10:47:47.894Z,5.90
2023-01-04T10:50:29.742Z,6.00
2023-01-04T10:53:03.939Z,6.10
2023-01-04T10:56:23.490Z,6.10
2023-01-04T10:58:39.526Z,6.10
2023-01-04T11:01:23.906Z,6.20
2023-01-04T11:04:06.134Z,6.20
2023-01-04T11:06:49.721Z,6.20
2023-01-04T11:09:24.864Z,6.20
2023-01-04T11:11:56.839Z,6.30
2023-01-04T11:14:25.713Z,6.30
2023-01-04T11:17:00.099Z,6.30
2023-01-04T11:19:29.379Z,6.40
2023-01-04T11:22:15.562Z,6.50
2023-01-04T11:25:07.774Z,6.50
2023-01-04T11:27:41.837Z,6.50
2023-01-04T11:30:15.762Z,6.60
2023-01-04T11:32:58.092Z,6.60
2023-01-04T11:35:44.085Z,6.60
2023-01-04T11:38:17.531Z,6.70
2023-01-04T11:41:06.436Z,6.70
2023-01-04T11:43:35.855Z,6.70
2023-01-04T11:46:18.007Z,6.70
2023-01-04T11:48:46.876Z,6.70
2023-01-04T11:51:18.870Z,6.70
2023-01-04T11:53:47.273Z,6.70
2023-01-04T11:56:23.632Z,6.80
2023-01-04T11:59:24.943Z,6.80
2023-01-04T12:05:29.645Z,6.80
2023-01-04T12:07:58.750Z,6.80
2023-01-04T12:10:28.290Z,6.90
2023-01-04T12:12:57.827Z,6.90
2023-01-04T12:15:53.956Z,7.00
2023-01-04T12:18:28.130Z,7.00
2023-01-04T12:21:01.272Z,7.00
2023-01-04T12:23:29.447Z,7.00
2023-01-04T12:25:57.608Z,7.10
2023-01-04T12:28:31.743Z,7.10
2023-01-04T12:31:21.255Z,7.20
2023-01-04T12:33:55.453Z,7.30
2023-01-04T12:36:45.062Z,7.40
2023-01-04T12:39:15.246Z,7.50
2023-01-04T12:41:43.522Z,7.50
2023-01-04T12:44:32.419Z,7.60
2023-01-04T12:47:18.191Z,7.70
2023-01-04T12:49:57.480Z,7.60
2023-01-04T12:52:55.325Z,7.60
2023-01-04T12:55:33.176Z,7.70
2023-01-04T12:58:02.298Z,7.70
2023-01-04T13:00:51.078Z,7.80
2023-01-04T13:03:18.296Z,7.80
2023-01-04T13:06:05.705Z,7.80
2023-01-04T13:08:40.686Z,7.80
2023-01-04T13:11:33.910Z,7.80
2023-01-04T13:14:08.369Z,7.90
2023-01-04T13:16:54.939Z,7.90
2023-01-04T13:19:25.503Z,8.00
2023-01-04T13:21:53.855Z,8.10
2023-01-04T13:24:34.477Z,8.10
2023-01-04T13:27:13.232Z,8.20
2023-01-04T13:29:41.587Z,8.20
2023-01-04T13:32:16.334Z,8.30
2023-01-04T13:34:55.781Z,8.40
2023-01-04T13:37:33.045Z,8.40
2023-01-04T13:40:23.880Z,8.40
2023-01-04T13:43:27.793Z,8.50
2023-01-04T13:45:56.213Z,8.50
2023-01-04T13:48:30.444Z,8.60
2023-01-04T13:51:29.296Z,8.70
2023-01-04T13:54:03.123Z,8.70
2023-01-04T13:56:33.076Z,8.70
2023-01-04T13:59:00.467Z,8.70
2023-01-04T14:01:33.693Z,8.70
2023-01-04T14:04:14.742Z,8.70
2023-01-04T14:06:50.961Z,8.70
2023-01-04T14:09:24.769Z,8.70
2023-01-04T14:15:16.249Z,8.70
2023-01-04T14:17:52.050Z,8.70
2023-01-04T14:20:24.564Z,8.70
2023-01-04T14:22:58.359Z,8.70
2023-01-04T14:25:34.264Z,8.70
2023-01-04T14:28:22.965Z,8.70
2023-01-04T14:30:53.377Z,8.70
2023-01-04T14:33:32.384Z,8.70
2023-01-04T14:36:03.639Z,8.70
2023-01-04T14:38:35.596Z,8.70
2023-01-04T14:41:26.163Z,8.70
2023-01-04T14:44:00.884Z,8.70
2023-01-04T14:46:30.217Z,8.70
2023-01-04T14:48:59.049Z,8.70
2023-01-04T14:51:46.368Z,8.70
2023-01-04T14:54:20.480Z,8.80
2023-01-04T14:56:52.718Z,8.80
2023-01-04T14:59:20.105Z,8.80
2023-01-04T15:01:47.294Z,8.80
2023-01-04T15:04:14.484Z,8.80
2023-01-04T15:06:51.381Z,8.80
2023-01-04T15:09:18.786Z,8.80
2023-01-04T15:11:45.890Z,8.80
2023-01-04T15:14:13.139Z,8.80
2023-01-04T15:16:40.232Z,8.80
2023-01-04T15:19:07.326Z,8.80
2023-01-04T15:21:40.583Z,8.80
2023-01-04T15:24:10.589Z,8.80
2023-01-04T15:26:39.396Z,8.80
2023-01-04T15:29:07.292Z,8.80
2023-01-04T15:31:38.831Z,8.80
2023-01-04T15:34:07.718Z,8.80
2023-01-04T15:36:38.721Z,8.80
2023-01-04T15:39:06.855Z,8.80
2023-01-04T15:41:52.433Z,8.80
2023-01-04T15:44:19.405Z,8.80
2023-01-04T15:46:46.759Z,8.80
2023-01-04T15:49:17.532Z,8.80
2023-01-04T15:51:45.897Z,8.80
2023-01-04T15:54:13.722Z,8.80
2023-01-04T15:56:40.739Z,8.70
2023-01-04T15:59:07.784Z,8.70
2023-01-04T16:01:34.937Z,8.70
2023-01-04T16:04:02.839Z,8.70
2023-01-04T16:06:29.845Z,8.70
2023-01-04T16:08:59.013Z,8.70
2023-01-04T16:11:26.108Z,8.70
2023-01-04T16:13:53.390Z,8.70
2023-01-04T16:16:22.234Z,8.70
2023-01-04T16:18:51.063Z,8.70
2023-01-04T16:21:26.521Z,8.70
2023-01-04T16:24:03.819Z,8.70
2023-01-04T16:26:32.823Z,8.70
2023-01-04T16:29:00.971Z,8.70
2023-01-04T16:31:36.889Z,8.70
2023-01-04T16:34:04.495Z,8.70
2023-01-04T16:36:31.979Z,8.70
2023-01-04T16:38:58.951Z,8.60
2023-01-04T16:41:26.173Z,8.60
2023-01-04T16:43:56.678Z,8.60
2023-01-04T16:46:33.765Z,8.60
2023-01-04T16:49:05.463Z,8.70
2023-01-04T16:51:34.603Z,8.70
2023-01-04T16:54:07.096Z,8.70
2023-01-04T16:56:34.739Z,8.60
2023-01-04T16:59:02.420Z,8.60
2023-01-04T17:01:34.561Z,8.60
2023-01-04T17:04:04.486Z,8.60
2023-01-04T17:06:32.862Z,8.60
2023-01-04T17:09:03.497Z,8.60
2023-01-04T17:14:19.964Z,8.60
2023-01-04T17:16:46.998Z,8.60
2023-01-04T17:19:14.188Z,8.60
2023-01-04T17:21:41.421Z,8.60
2023-01-04T17:24:10.821Z,8.70
2023-01-04T17:26:39.625Z,8.70
2023-01-04T17:29:07.052Z,8.80
2023-01-04T17:31:37.443Z,8.80
2023-01-04T17:34:04.942Z,8.80
2023-01-04T17:36:32.294Z,8.80
2023-01-04T17:39:00.999Z,8.80
2023-01-04T17:41:29.842Z,8.90
2023-01-04T17:44:03.144Z,8.90
2023-01-04T17:46:36.026Z,8.90
2023-01-04T17:49:25.564Z,8.90
2023-01-04T17:51:55.557Z,8.90
2023-01-04T17:54:23.186Z,8.90
2023-01-04T17:56:50.748Z,9.00
2023-01-04T17:59:17.866Z,9.00
2023-01-04T18:01:45.625Z,9.00
2023-01-04T18:04:13.238Z,9.00
2023-01-04T18:06:40.960Z,9.10
2023-01-04T18:09:10.118Z,9.00
2023-01-04T18:11:37.773Z,9.00
2023-01-04T18:14:09.937Z,9.00
2023-01-04T18:16:57.761Z,9.00
2023-01-04T18:19:30.912Z,9.00
2023-01-04T18:21:58.867Z,9.00
2023-01-04T18:24:42.136Z,9.00
2023-01-04T18:27:23.687Z,9.10
2023-01-04T18:29:54.811Z,9.10
2023-01-04T18:32:23.881Z,9.10
2023-01-04T18:34:51.872Z,9.10
2023-01-04T18:37:21.217Z,9.10
2023-01-04T18:39:49.835Z,9.20
2023-01-04T18:42:17.957Z,9.20
2023-01-04T18:44:49.930Z,9.30
2023-01-04T18:47:20.275Z,9.30
2023-01-04T18:49:50.148Z,9.40
2023-01-04T18:52:19.138Z,9.40
2023-01-04T18:54:49.125Z,9.40
2023-01-04T18:57:17.132Z,9.50
2023-01-04T18:59:45.018Z,9.50
2023-01-04T19:02:18.249Z,9.60
2023-01-04T19:04:46.734Z,9.60
2023-01-04T19:07:14.162Z,9.60
2023-01-04T19:09:43.335Z,9.60
2023-01-04T19:12:12.002Z,9.60
2023-01-04T19:14:40.122Z,9.50
2023-01-04T19:17:10.232Z,9.50
2023-01-04T19:19:40.487Z,9.50
2023-01-04T19:22:08.434Z,9.50
2023-01-04T19:24:37.306Z,9.50
2023-01-04T19:27:05.910Z,9.50
2023-01-04T19:29:34.462Z,9.50
2023-01-04T19:32:02.611Z,9.50
2023-01-04T19:34:31.114Z,9.50
2023-01-04T19:36:58.837Z,9.60
2023-01-04T19:39:26.433Z,9.60
2023-01-04T19:41:53.889Z,9.70
2023-01-04T19:44:21.788Z,9.70
2023-01-04T19:46:49.705Z,9.70
2023-01-04T19:49:17.897Z,9.80
2023-01-04T19:51:47.787Z,9.80
2023-01-04T19:54:21.683Z,9.80
2023-01-04T19:56:54.168Z,9.80
2023-01-04T19:59:21.625Z,9.90
2023-01-04T20:01:49.695Z,9.90
2023-01-04T20:04:17.980Z,9.90
2023-01-04T20:06:46.276Z,9.90
2023-01-04T20:09:15.420Z,9.90
2023-01-04T20:11:43.467Z,9.90
2023-01-04T20:14:11.120Z,9.90
2023-01-04T20:16:40.497Z,9.90
2023-01-04T20:19:08.426Z,9.90
2023-01-04T20:21:36.439Z,9.90
2023-01-04T20:24:04.480Z,9.90
2023-01-04T20:26:31.916Z,10.00
2023-01-04T20:29:00.580Z,10.00
2023-01-04T20:31:28.712Z,10.00
2023-01-04T20:33:57.024Z,10.00
2023-01-04T20:36:34.539Z,10.10
2023-01-04T20:39:04.020Z,10.10
2023-01-04T20:41:33.156Z,10.20
2023-01-04T20:44:02.424Z,10.20
2023-01-04T20:46:34.856Z,10.30
2023-01-04T20:49:04.534Z,10.30
2023-01-04T20:51:32.109Z,10.30
2023-01-04T20:54:00.399Z,10.30
2023-01-04T20:56:30.989Z,10.40
2023-01-04T20:59:00.325Z,10.40
2023-01-04T21:01:27.976Z,10.40
2023-01-04T21:03:55.592Z,10.40
2023-01-04T21:06:24.138Z,10.50
2023-01-04T21:08:55.069Z,10.50
2023-01-04T21:11:23.207Z,10.50
2023-01-04T21:13:51.438Z,10.50
2023-01-04T21:16:18.966Z,10.60
2023-01-04T21:18:47.149Z,10.60
2023-01-04T21:21:17.666Z,10.60
2023-01-04T21:23:45.970Z,10.60
2023-01-04T21:26:15.723Z,10.70
2023-01-04T21:28:43.162Z,10.70
2023-01-04T21:31:17.666Z,10.70
2023-01-04T21:33:46.643Z,10.80
2023-01-04T21:36:17.800Z,10.80
2023-01-04T21:38:47.974Z,10.90
2023-01-04T21:41:15.724Z,11.00
2023-01-04T21:43:43.703Z,11.00
2023-01-04T21:46:16.135Z,11.10
2023-01-04T21:48:45.070Z,11.10
2023-01-04T21:51:13.682Z,11.10
2023-01-04T21:53:41.567Z,11.10
2023-01-04T21:56:15.641Z,11.10
2023-01-04T21:58:43.588Z,11.10
2023-01-04T22:01:12.639Z,11.10
2023-01-04T22:03:40.336Z,11.10
2023-01-04T22:06:07.787Z,11.20
2023-01-04T22:08:35.416Z,11.20
2023-01-04T22:11:05.195Z,11.20
2023-01-04T22:13:32.346Z,11.20
2023-01-04T22:15:59.766Z,11.20
2023-01-04T22:18:26.880Z,11.20
2023-01-04T22:21:02.878Z,11.20
2023-01-04T22:23:31.351Z,11.20
2023-01-04T22:25:59.373Z,11.20
2023-01-04T22:28:31.776Z,11.30
2023-01-04T22:31:09.511Z,11.20
2023-01-04T22:33:37.778Z,11.30
2023-01-04T22:36:17.166Z,11.30
2023-01-04T22:38:48.891Z,11.30
2023-01-04T22:41:19.362Z,11.30
2023-01-04T22:43:47.881Z,11.30
2023-01-04T22:46:17.804Z,11.30
2023-01-04T22:48:45.770Z,11.30
2023-01-04T22:51:15.865Z,11.30
2023-01-04T22:53:43.342Z,11.40
2023-01-04T22:56:21.562Z,11.40
2023-01-04T22:58:54.249Z,11.40
2023-01-04T23:01:29.215Z,11.40
2023-01-04T23:03:58.253Z,11.40
2023-01-04T23:06:27.241Z,11.50
2023-01-04T23:08:56.910Z,11.50
2023-01-04T23:11:24.156Z,11.50
2023-01-04T23:13:52.548Z,11.40
2023-01-04T23:16:22.772Z,11.40
2023-01-04T23:18:53.365Z,11.40
2023-01-04T23:21:20.511Z,11.40
2023-01-04T23:23:50.927Z,11.40
2023-01-04T23:26:23.344Z,11.40
2023-01-04T23:28:51.291Z,11.40
2023-01-04T23:31:22.667Z,11.50
2023-01-04T23:33:55.662Z,11.50
2023-01-04T23:36:28.625Z,11.40
2023-01-04T23:38:58.909Z,11.40
2023-01-04T23:41:45.127Z,11.50
2023-01-04T23:44:17.296Z,11.50
2023-01-04T23:46:44.820Z,11.50
2023-01-04T23:49:13.010Z,11.50
2023-01-04T23:51:40.293Z,11.50
2023-01-04T23:54:08.559Z,11.60
2023-01-04T23:56:37.108Z,11.60
2023-01-04T23:59:04.411Z,11.60
